Time;durP1;ratioP1;P1;durP2;ratioP2;P2;SDS_P1;SDS_P2;PMS_P1;PMS_P2;Temp;Humidity;BMP_temperature;BMP_pressure;BME280_temperature;BME280_humidity;BME280_pressure;Samples;Min_cycle;Max_cycle;Signal;HPM_P1;HPM_P2
2022/12/04 00:01:27;;;;;;;98.00;42.80;;;1.20;99.90;;;;;;4991622;28;20038;-68
2022/12/04 00:04:13;;;;;;;99.93;42.17;;;1.20;99.90;;;;;;5009620;28;20021;-65
2022/12/04 00:06:59;;;;;;;101.85;43.53;;;1.20;99.90;;;;;;4999924;28;20089;-66
2022/12/04 00:09:45;;;;;;;106.25;43.35;;;1.20;99.90;;;;;;5007805;28;20081;-63
2022/12/04 00:12:32;;;;;;;105.15;43.78;;;1.20;99.90;;;;;;4985636;28;20030;-67
2022/12/04 00:15:18;;;;;;;102.47;42.75;;;1.30;99.90;;;;;;4984530;28;20027;-66
2022/12/04 00:18:04;;;;;;;96.82;43.22;;;1.20;99.90;;;;;;4988376;28;20064;-64
2022/12/04 00:20:50;;;;;;;101.28;43.67;;;1.20;99.90;;;;;;5001189;28;20034;-64
2022/12/04 00:23:38;;;;;;;103.28;43.42;;;1.30;99.90;;;;;;4998001;28;20037;-64
2022/12/04 00:26:26;;;;;;;102.63;40.95;;;1.30;99.90;;;;;;4999274;28;20033;-64
2022/12/04 00:29:12;;;;;;;101.47;42.00;;;1.30;99.90;;;;;;5013476;28;20034;-64
2022/12/04 00:31:58;;;;;;;99.60;42.78;;;1.30;99.90;;;;;;5011853;28;20083;-63
2022/12/04 00:34:44;;;;;;;96.30;42.72;;;1.30;99.90;;;;;;5008309;28;20038;-65
2022/12/04 00:37:32;;;;;;;106.18;42.28;;;1.30;99.90;;;;;;5012116;28;20025;-64
2022/12/04 00:40:18;;;;;;;97.80;41.72;;;1.30;99.90;;;;;;4986419;28;20034;-64
2022/12/04 00:43:03;;;;;;;101.40;40.28;;;1.30;99.90;;;;;;4999006;28;20026;-65
2022/12/04 00:45:49;;;;;;;96.32;40.00;;;1.30;99.90;;;;;;5013552;28;20057;-65
2022/12/04 00:48:35;;;;;;;96.47;41.47;;;1.40;99.90;;;;;;5013174;28;20066;-64
2022/12/04 00:51:23;;;;;;;106.22;44.03;;;1.40;99.90;;;;;;5007345;28;20092;-66
2022/12/04 00:54:09;;;;;;;103.97;43.53;;;1.30;99.90;;;;;;4991825;28;20026;-65
2022/12/04 00:56:55;;;;;;;104.63;42.40;;;1.40;99.90;;;;;;5005145;28;20034;-63
2022/12/04 00:59:41;;;;;;;105.28;46.08;;;1.30;99.90;;;;;;4997740;28;20056;-63
2022/12/04 01:02:28;;;;;;;93.80;40.33;;;1.30;99.90;;;;;;4997369;28;20034;-63
2022/12/04 01:05:14;;;;;;;96.50;43.00;;;1.40;99.90;;;;;;4999046;28;20045;-64
2022/12/04 01:08:00;;;;;;;100.53;44.83;;;1.30;99.90;;;;;;4997837;28;20121;-63
2022/12/04 01:10:46;;;;;;;109.72;46.85;;;1.30;99.90;;;;;;5012289;28;20041;-64
2022/12/04 01:13:32;;;;;;;101.95;43.08;;;1.30;99.90;;;;;;4998590;28;20033;-64
2022/12/04 01:16:24;;;;;;;94.13;41.10;;;1.30;99.90;;;;;;5011110;28;20030;-63
2022/12/04 01:19:11;;;;;;;109.55;45.88;;;1.30;99.90;;;;;;4998441;28;20112;-64
2022/12/04 01:21:57;;;;;;;104.00;44.42;;;1.30;99.90;;;;;;5006858;28;20030;-63
2022/12/04 01:24:43;;;;;;;108.30;46.45;;;1.30;99.90;;;;;;4997779;28;20038;-63
2022/12/04 01:27:29;;;;;;;112.65;46.65;;;1.20;99.90;;;;;;5010093;28;20107;-64
2022/12/04 01:30:15;;;;;;;105.72;46.60;;;1.20;99.90;;;;;;4991201;28;20022;-65
2022/12/04 01:33:01;;;;;;;102.18;42.88;;;1.20;99.90;;;;;;4991130;28;20034;-63
2022/12/04 01:35:52;;;;;;;106.68;45.63;;;1.20;99.90;;;;;;4979758;28;20035;-62
2022/12/04 01:38:39;;;;;;;110.10;45.38;;;1.20;99.90;;;;;;5011589;28;20034;-63
2022/12/04 01:41:28;;;;;;;103.38;44.10;;;1.20;99.90;;;;;;5011616;28;20734;-63
2022/12/04 01:44:18;;;;;;;105.22;44.63;;;1.20;99.90;;;;;;5009310;28;20717;-64
2022/12/04 01:47:04;;;;;;;106.38;45.28;;;1.20;99.90;;;;;;4988051;28;20038;-64
2022/12/04 01:49:49;;;;;;;102.30;46.22;;;1.20;99.90;;;;;;4998297;28;20033;-63
2022/12/04 01:52:35;;;;;;;103.65;44.35;;;1.20;99.90;;;;;;5009224;28;20506;-63
2022/12/04 01:55:21;;;;;;;109.35;45.38;;;1.20;99.90;;;;;;4994661;28;20442;-63
2022/12/04 01:58:08;;;;;;;107.60;45.10;;;1.20;99.90;;;;;;5011955;28;20030;-64
2022/12/04 02:00:59;;;;;;;106.80;45.42;;;1.20;99.90;;;;;;5011534;28;20026;-64
2022/12/04 02:03:45;;;;;;;101.35;45.92;;;1.30;99.90;;;;;;5011669;28;20110;-63
2022/12/04 02:06:31;;;;;;;105.95;43.75;;;1.30;99.90;;;;;;5011566;28;20045;-63
2022/12/04 02:09:18;;;;;;;98.53;42.40;;;1.30;99.90;;;;;;5011142;28;20064;-63
2022/12/04 02:12:10;;;;;;;107.47;46.85;;;1.20;99.90;;;;;;5011420;28;20026;-64
2022/12/04 02:15:14;;;;;;;108.35;45.72;;;1.20;99.90;;;;;;5005508;28;20450;-64
2022/12/04 02:18:02;;;;;;;101.85;44.63;;;1.20;99.90;;;;;;5008831;28;20018;-64
2022/12/04 02:21:20;;;;;;;105.10;46.42;;;1.20;99.90;;;;;;5003651;28;20084;-64
2022/12/04 02:24:30;;;;;;;108.50;43.83;;;1.20;99.90;;;;;;5010486;28;20015;-63
2022/12/04 02:28:03;;;;;;;108.18;46.05;;;1.20;99.90;;;;;;4992526;28;20415;-63
2022/12/04 02:30:55;;;;;;;117.47;47.70;;;1.20;99.90;;;;;;5007591;28;20081;-63
2022/12/04 02:33:58;;;;;;;106.50;43.78;;;1.20;99.90;;;;;;5008500;28;20026;-64
2022/12/04 02:37:08;;;;;;;109.95;46.58;;;1.20;99.90;;;;;;5009746;28;20038;-64
2022/12/04 02:40:05;;;;;;;106.75;47.47;;;1.30;99.90;;;;;;5012359;28;20041;-64
2022/12/04 02:42:56;;;;;;;103.38;44.05;;;1.20;99.90;;;;;;4992630;28;20050;-64
2022/12/04 02:45:47;;;;;;;103.13;46.90;;;1.30;99.90;;;;;;4994574;28;20486;-63
2022/12/04 02:48:37;;;;;;;106.85;45.90;;;1.30;99.90;;;;;;5010909;28;20034;-63
2022/12/04 02:51:29;;;;;;;97.45;43.25;;;1.20;99.90;;;;;;5010389;28;20111;-64
2022/12/04 02:54:39;;;;;;;97.05;43.97;;;1.30;99.90;;;;;;5009784;28;20030;-64
2022/12/04 02:57:30;;;;;;;101.35;45.10;;;1.40;99.90;;;;;;5009387;28;20021;-64
2022/12/04 03:00:17;;;;;;;106.60;45.20;;;1.30;99.90;;;;;;4997244;28;20081;-66
2022/12/04 03:03:09;;;;;;;104.75;46.30;;;1.30;99.90;;;;;;5010267;28;20022;-62
2022/12/04 03:06:00;;;;;;;96.60;45.05;;;1.40;99.90;;;;;;4996461;28;20186;-63
2022/12/04 03:08:51;;;;;;;105.75;45.38;;;1.40;99.90;;;;;;5014515;28;20105;-63
2022/12/04 03:11:42;;;;;;;102.82;45.75;;;1.40;99.90;;;;;;5013312;28;20041;-63
2022/12/04 03:14:32;;;;;;;96.68;45.10;;;1.40;99.90;;;;;;5013593;28;20034;-64
2022/12/04 03:17:28;;;;;;;106.15;44.85;;;1.40;99.90;;;;;;5014679;28;20026;-63
2022/12/04 03:20:16;;;;;;;104.82;45.28;;;1.40;99.90;;;;;;5014036;28;20030;-63
2022/12/04 03:23:15;;;;;;;98.70;43.50;;;1.40;99.90;;;;;;5000049;28;20026;-64
2022/12/04 03:26:16;;;;;;;101.72;45.05;;;1.30;99.90;;;;;;5006610;28;20045;-64
2022/12/04 03:29:11;;;;;;;100.70;44.75;;;1.30;99.90;;;;;;5014299;28;20030;-63
2022/12/04 03:32:29;;;;;;;98.18;44.55;;;1.30;99.90;;;;;;5013598;28;20026;-63
2022/12/04 03:35:18;;;;;;;105.88;46.08;;;1.30;99.90;;;;;;5014665;28;20399;-63
2022/12/04 03:38:20;;;;;;;107.88;47.20;;;1.40;99.90;;;;;;4999267;28;20443;-63
2022/12/04 03:41:15;;;;;;;94.63;44.53;;;1.30;99.90;;;;;;5014252;28;20568;-65
2022/12/04 03:44:09;;;;;;;102.63;44.95;;;1.20;99.90;;;;;;5014523;28;20032;-63
2022/12/04 03:47:05;;;;;;;100.28;44.63;;;1.30;99.90;;;;;;5014172;28;20022;-64
2022/12/04 03:49:56;;;;;;;;;;;1.40;99.90;;;;;;5014251;28;20033;-63
2022/12/04 03:52:54;;;;;;;96.50;45.20;;;1.30;99.90;;;;;;4994417;28;19969;-64
2022/12/04 03:55:49;;;;;;;96.40;45.53;;;1.30;99.90;;;;;;4993683;28;20060;-65
2022/12/04 03:58:37;;;;;;;98.22;44.25;;;1.30;99.90;;;;;;4996348;28;20029;-63
2022/12/04 04:01:29;;;;;;;103.35;43.63;;;1.40;99.90;;;;;;5014195;28;20022;-64
2022/12/04 04:04:20;;;;;;;96.38;45.80;;;1.40;99.90;;;;;;5012484;28;20034;-64
2022/12/04 04:07:15;;;;;;;93.45;44.90;;;1.50;99.90;;;;;;4995464;28;20077;-63
2022/12/04 04:10:10;;;;;;;96.20;42.28;;;1.50;99.90;;;;;;5004607;28;20037;-61
2022/12/04 04:25:28;;;;;;;103.97;47.97;;;1.40;99.90;;;;;;5013732;28;20525;-64
2022/12/04 04:28:36;;;;;;;111.65;48.13;;;1.40;99.90;;;;;;5011738;28;20034;-60
2022/12/04 04:31:46;;;;;;;112.03;47.35;;;1.40;99.90;;;;;;5012524;28;20026;-63
2022/12/04 04:35:10;;;;;;;108.95;48.42;;;1.30;99.90;;;;;;5012891;28;20037;-62
2022/12/04 04:38:09;;;;;;;114.03;48.10;;;1.30;99.90;;;;;;5011685;28;20084;-61
2022/12/04 04:40:59;;;;;;;118.88;49.42;;;1.30;99.90;;;;;;5013426;28;20029;-63
2022/12/04 04:43:56;;;;;;;115.63;49.15;;;1.20;99.90;;;;;;4997744;28;20057;-62
2022/12/04 04:46:51;;;;;;;106.75;47.40;;;1.30;99.90;;;;;;5012728;28;20128;-63
2022/12/04 04:49:39;;;;;;;114.40;51.53;;;1.30;99.90;;;;;;4998875;28;20092;-63
2022/12/04 04:52:26;;;;;;;112.35;49.50;;;1.40;99.90;;;;;;5013087;28;20284;-60
2022/12/04 04:55:14;;;;;;;117.72;50.22;;;1.40;99.90;;;;;;4999398;28;20494;-61
2022/12/04 04:58:07;;;;;;;118.03;50.72;;;1.40;99.90;;;;;;5013153;28;20030;-63
2022/12/04 05:00:58;;;;;;;110.45;50.03;;;1.30;99.90;;;;;;5012633;28;20110;-63
2022/12/04 05:03:44;;;;;;;115.95;51.22;;;1.30;99.90;;;;;;5019514;28;20025;-66
2022/12/04 05:06:30;;;;;;;112.10;50.83;;;1.40;99.90;;;;;;5013177;28;20030;-62
2022/12/04 05:09:16;;;;;;;117.57;51.63;;;1.30;99.90;;;;;;5013017;28;20026;-63
2022/12/04 05:12:02;;;;;;;120.50;54.50;;;1.30;99.90;;;;;;5012676;28;20034;-62
2022/12/04 05:14:48;;;;;;;114.40;52.35;;;1.30;99.90;;;;;;5011961;28;20121;-64
2022/12/04 05:17:35;;;;;;;113.75;53.42;;;1.40;99.90;;;;;;5012684;28;20027;-62
2022/12/04 05:20:20;;;;;;;127.78;54.55;;;1.30;99.90;;;;;;4992778;28;20166;-62
2022/12/04 05:23:06;;;;;;;118.20;52.63;;;1.30;99.90;;;;;;4981077;28;20038;-62
2022/12/04 05:25:59;;;;;;;115.47;51.35;;;1.20;99.90;;;;;;4998345;28;20117;-62
2022/12/04 05:28:45;;;;;;;125.68;52.58;;;1.30;99.90;;;;;;4997409;28;20034;-61
2022/12/04 05:31:31;;;;;;;115.47;51.55;;;1.30;99.90;;;;;;4997566;28;20120;-61
2022/12/04 05:34:17;;;;;;;123.18;51.03;;;1.30;99.90;;;;;;4997380;28;20025;-63
2022/12/04 05:37:02;;;;;;;127.55;54.00;;;1.30;99.90;;;;;;5012229;28;20517;-62
2022/12/04 05:39:48;;;;;;;122.80;53.53;;;1.30;99.90;;;;;;5011587;28;20030;-61
2022/12/04 05:42:34;;;;;;;118.13;53.03;;;1.30;99.90;;;;;;4984572;28;20092;-60
2022/12/04 05:45:20;;;;;;;129.57;56.60;;;1.30;99.90;;;;;;5012119;28;20385;-63
2022/12/04 05:48:06;;;;;;;129.07;53.72;;;1.20;99.90;;;;;;5011683;28;20030;-62
2022/12/04 05:50:52;;;;;;;125.07;55.00;;;1.20;99.90;;;;;;4992348;28;20113;-64
2022/12/04 05:53:38;;;;;;;122.10;50.58;;;1.30;99.90;;;;;;4989027;28;20033;-60
2022/12/04 05:56:24;;;;;;;125.22;54.65;;;1.30;99.90;;;;;;5012097;28;20105;-61
2022/12/04 05:59:10;;;;;;;114.80;53.13;;;1.30;99.90;;;;;;4997753;28;20122;-58
2022/12/04 06:01:56;;;;;;;119.15;50.42;;;1.30;99.90;;;;;;4996285;28;20103;-62
2022/12/04 06:04:42;;;;;;;121.43;54.30;;;1.20;99.90;;;;;;5011898;28;20033;-60
2022/12/04 06:07:28;;;;;;;123.90;54.83;;;1.20;99.90;;;;;;5011500;28;20034;-63
2022/12/04 06:10:14;;;;;;;131.32;56.28;;;1.20;99.90;;;;;;5011568;28;20057;-63
2022/12/04 06:13:00;;;;;;;122.68;52.75;;;1.20;99.90;;;;;;4978802;28;20525;-61
2022/12/04 06:15:46;;;;;;;123.88;52.95;;;1.20;99.90;;;;;;4980947;28;20026;-62
2022/12/04 06:18:32;;;;;;;126.07;57.22;;;1.20;99.90;;;;;;5011646;28;20065;-62
2022/12/04 06:21:19;;;;;;;122.03;54.92;;;1.20;99.90;;;;;;4997067;28;20140;-62
2022/12/04 06:24:06;;;;;;;123.68;55.67;;;1.20;99.90;;;;;;4997683;28;20032;-61
2022/12/04 06:26:57;;;;;;;123.90;56.13;;;1.20;99.90;;;;;;4996045;28;20038;-63
2022/12/04 06:29:43;;;;;;;124.22;54.97;;;1.20;99.90;;;;;;5011540;28;20041;-62
2022/12/04 06:32:29;;;;;;;124.18;56.90;;;1.20;99.90;;;;;;4992241;28;20034;-62
2022/12/04 06:35:18;;;;;;;126.03;54.05;;;1.20;99.90;;;;;;4995797;28;20089;-64
2022/12/04 06:38:04;;;;;;;122.18;54.47;;;1.30;99.90;;;;;;5011351;28;20034;-61
2022/12/04 06:40:50;;;;;;;129.90;56.15;;;1.20;99.90;;;;;;5012208;28;20018;-61
2022/12/04 06:43:36;;;;;;;130.60;56.95;;;1.30;99.90;;;;;;5015613;28;20030;-63
2022/12/04 06:46:32;;;;;;;128.80;54.55;;;1.30;99.90;;;;;;5001322;28;20026;-62
2022/12/04 06:49:21;;;;;;;132.48;58.33;;;1.30;99.90;;;;;;5000378;28;20037;-60
2022/12/04 06:52:07;;;;;;;132.40;56.08;;;1.30;99.90;;;;;;5014789;28;20429;-62
2022/12/04 06:54:53;;;;;;;122.03;54.08;;;1.30;99.90;;;;;;5001225;28;20042;-64
2022/12/04 06:57:39;;;;;;;133.52;57.28;;;1.40;99.90;;;;;;5015034;28;20108;-64
2022/12/04 07:00:26;;;;;;;134.05;56.38;;;1.30;99.90;;;;;;4986150;28;20034;-62
2022/12/04 07:03:12;;;;;;;128.65;56.95;;;1.30;99.90;;;;;;4981249;28;20044;-62
2022/12/04 07:05:57;;;;;;;136.55;61.67;;;1.20;99.90;;;;;;4983413;28;20034;-63
2022/12/04 07:08:46;;;;;;;123.32;54.78;;;1.20;99.90;;;;;;5014518;28;20041;-63
2022/12/04 07:11:33;;;;;;;126.88;54.45;;;1.30;99.90;;;;;;5013888;28;20029;-65
2022/12/04 07:14:22;;;;;;;136.20;58.75;;;1.30;99.90;;;;;;5014732;28;20034;-65
2022/12/04 07:17:07;;;;;;;134.07;56.63;;;1.30;99.90;;;;;;5014000;28;20026;-62
2022/12/04 07:19:53;;;;;;;132.82;56.67;;;1.30;99.90;;;;;;5015119;28;20034;-63
2022/12/04 07:22:39;;;;;;;131.45;56.42;;;1.30;99.90;;;;;;5013861;28;20041;-61
2022/12/04 07:25:28;;;;;;;127.00;55.25;;;1.30;99.90;;;;;;5000649;28;20041;-62
2022/12/04 07:28:14;;;;;;;135.23;58.15;;;1.30;99.90;;;;;;5014498;28;20040;-63
2022/12/04 07:31:04;;;;;;;127.07;55.75;;;1.30;99.90;;;;;;5012809;28;20030;-61
2022/12/04 07:33:52;;;;;;;132.85;60.38;;;1.30;99.90;;;;;;5005342;28;20026;-62
2022/12/04 07:36:39;;;;;;;139.05;58.20;;;1.30;99.90;;;;;;5013605;28;20042;-63
2022/12/04 07:39:25;;;;;;;135.02;59.53;;;1.20;99.90;;;;;;5014487;28;20495;-62
2022/12/04 07:42:11;;;;;;;132.55;57.58;;;1.30;99.90;;;;;;4999129;28;20064;-63
2022/12/04 07:44:57;;;;;;;139.07;57.60;;;1.30;99.90;;;;;;5013610;28;20498;-62
2022/12/04 07:47:43;;;;;;;136.77;57.33;;;1.20;99.90;;;;;;4999585;28;20384;-64
2022/12/04 07:50:29;;;;;;;137.73;63.20;;;1.30;99.90;;;;;;4999788;28;20036;-62
2022/12/04 07:53:15;;;;;;;148.80;61.95;;;1.30;99.90;;;;;;4993922;28;20042;-65
2022/12/04 07:56:02;;;;;;;138.90;58.35;;;1.30;99.90;;;;;;5003794;28;20080;-61
2022/12/04 07:58:48;;;;;;;133.77;59.45;;;1.40;99.90;;;;;;5014703;28;20468;-64
2022/12/04 08:01:34;;;;;;;134.23;59.38;;;1.40;99.90;;;;;;4998807;28;20064;-59
2022/12/04 08:04:20;;;;;;;118.78;56.30;;;1.40;99.90;;;;;;5014331;28;20105;-62
2022/12/04 08:07:05;;;;;;;128.65;56.40;;;1.40;99.90;;;;;;5013301;28;20117;-62
2022/12/04 08:09:51;;;;;;;135.13;56.83;;;1.40;99.90;;;;;;4984730;28;20034;-63
2022/12/04 08:12:37;;;;;;;140.45;59.03;;;1.40;99.90;;;;;;4994392;28;20156;-60
2022/12/04 08:15:23;;;;;;;131.77;59.00;;;1.40;99.90;;;;;;4982136;28;20038;-65
2022/12/04 08:18:09;;;;;;;129.00;59.05;;;1.40;99.90;;;;;;5000019;28;20117;-62
2022/12/04 08:21:02;;;;;;;138.40;59.13;;;1.40;99.90;;;;;;5012941;28;20022;-62
2022/12/04 08:23:50;;;;;;;136.35;58.28;;;1.40;99.90;;;;;;5014376;28;20022;-61
2022/12/04 08:26:37;;;;;;;132.25;57.63;;;1.40;99.90;;;;;;5004412;28;20380;-63
2022/12/04 08:29:23;;;;;;;134.43;58.15;;;1.50;99.90;;;;;;4993315;28;20026;-63
2022/12/04 08:32:09;;;;;;;144.48;58.83;;;1.50;99.90;;;;;;5010287;28;20034;-62
2022/12/04 08:34:54;;;;;;;126.75;56.67;;;1.50;99.90;;;;;;5013259;28;20030;-62
2022/12/04 08:37:40;;;;;;;140.60;58.28;;;1.40;99.90;;;;;;5000396;28;20106;-61
2022/12/04 08:40:26;;;;;;;131.05;57.63;;;1.40;99.90;;;;;;5008411;28;21293;-63
2022/12/04 08:43:12;;;;;;;140.82;58.92;;;1.40;99.90;;;;;;4998308;28;20507;-62
2022/12/04 08:46:01;;;;;;;133.95;58.80;;;1.40;99.90;;;;;;4996454;28;20045;-63
2022/12/04 08:48:47;;;;;;;132.00;59.00;;;1.50;99.90;;;;;;5013035;28;20018;-62
2022/12/04 08:51:36;;;;;;;135.32;58.83;;;1.50;99.90;;;;;;5012437;28;20030;-62
2022/12/04 08:54:22;;;;;;;125.70;55.60;;;1.60;99.90;;;;;;5013038;28;20112;-61
2022/12/04 08:57:08;;;;;;;128.65;56.58;;;1.60;99.90;;;;;;4997112;28;20546;-62
2022/12/04 08:59:54;;;;;;;134.32;58.30;;;1.60;99.90;;;;;;4997258;28;20026;-62
2022/12/04 09:02:40;;;;;;;140.80;60.72;;;1.50;99.90;;;;;;4992661;28;20042;-60
2022/12/04 09:05:25;;;;;;;127.15;58.08;;;1.50;99.90;;;;;;5003892;28;20077;-63
2022/12/04 09:08:13;;;;;;;132.25;61.22;;;1.50;99.90;;;;;;4993663;28;20065;-63
2022/12/04 09:11:09;;;;;;;135.52;59.75;;;1.50;99.90;;;;;;5006465;28;20568;-63
2022/12/04 09:13:55;;;;;;;133.90;58.90;;;1.60;99.90;;;;;;4998250;28;20498;-61
2022/12/04 09:16:41;;;;;;;135.10;57.45;;;1.60;99.90;;;;;;4974168;28;20023;-60
2022/12/04 09:19:27;;;;;;;127.82;58.63;;;1.60;99.90;;;;;;5003799;28;20077;-59
2022/12/04 09:22:13;;;;;;;130.07;58.75;;;1.50;99.90;;;;;;4980545;28;20066;-61
2022/12/04 09:24:59;;;;;;;126.25;59.17;;;1.50;99.90;;;;;;5004442;28;20022;-61
2022/12/04 09:27:45;;;;;;;130.43;57.30;;;1.50;99.90;;;;;;4977532;28;20040;-60
2022/12/04 09:30:31;;;;;;;129.00;57.53;;;1.60;99.90;;;;;;5000118;28;20437;-63
2022/12/04 09:33:16;;;;;;;130.57;56.55;;;1.60;99.90;;;;;;5008988;28;20537;-61
2022/12/04 09:36:03;;;;;;;134.68;58.05;;;1.50;99.90;;;;;;5008997;28;20041;-61
2022/12/04 09:38:51;;;;;;;127.97;59.45;;;1.60;99.90;;;;;;5010953;28;20022;-57
2022/12/04 09:41:52;;;;;;;136.23;62.05;;;1.50;99.90;;;;;;4995253;28;20065;-61
2022/12/04 09:44:51;;;;;;;127.25;56.15;;;1.60;99.90;;;;;;5008963;28;20040;-63
2022/12/04 09:47:43;;;;;;;127.22;58.95;;;1.60;99.90;;;;;;4997545;28;20498;-61
2022/12/04 09:50:41;;;;;;;127.72;59.13;;;1.60;99.90;;;;;;5009653;28;20037;-62
2022/12/04 09:53:45;;;;;;;135.35;59.25;;;1.60;99.90;;;;;;5011363;28;20380;-61
2022/12/04 09:56:31;;;;;;;135.65;59.53;;;1.60;99.90;;;;;;5011615;28;20037;-60
2022/12/04 09:59:26;;;;;;;141.88;57.85;;;1.60;99.90;;;;;;5009419;28;20026;-64
2022/12/04 10:02:35;;;;;;;146.40;60.88;;;1.60;99.90;;;;;;5011512;28;20030;-62
2022/12/04 10:05:33;;;;;;;129.25;61.00;;;1.60;99.90;;;;;;4996514;28;20530;-64
2022/12/04 10:08:30;;;;;;;130.23;57.83;;;1.60;99.90;;;;;;5003863;28;20026;-62
2022/12/04 10:11:25;;;;;;;139.73;59.70;;;1.60;99.90;;;;;;5011441;28;20557;-61
2022/12/04 10:14:35;;;;;;;138.77;62.15;;;1.60;99.90;;;;;;5011259;28;20108;-62
2022/12/04 10:17:51;;;;;;;136.95;61.22;;;1.50;99.90;;;;;;5016699;28;20037;-64
2022/12/04 10:20:56;;;;;;;139.82;56.75;;;1.50;99.90;;;;;;5016720;28;20040;-63
2022/12/04 10:24:01;;;;;;;141.18;59.65;;;1.50;99.90;;;;;;5018109;28;20429;-63
2022/12/04 10:26:48;;;;;;;134.27;58.38;;;1.60;99.90;;;;;;5017082;28;20029;-63
2022/12/04 10:29:36;;;;;;;131.93;59.45;;;1.60;99.90;;;;;;5018014;28;20018;-64
2022/12/04 10:32:27;;;;;;;142.77;62.15;;;1.60;99.90;;;;;;5017528;28;20022;-64
2022/12/04 10:35:16;;;;;;;132.77;59.22;;;1.60;99.90;;;;;;5016379;28;20038;-63
2022/12/04 10:38:22;;;;;;;129.68;58.97;;;1.60;99.90;;;;;;5009950;28;20022;-63
2022/12/04 10:41:19;;;;;;;148.43;64.47;;;1.60;99.90;;;;;;5013512;28;20399;-64
2022/12/04 10:44:08;;;;;;;137.60;60.33;;;1.60;99.90;;;;;;5014302;28;20099;-63
2022/12/04 10:47:02;;;;;;;148.38;61.28;;;1.50;99.90;;;;;;4998816;28;20085;-63
2022/12/04 10:49:50;;;;;;;143.88;60.95;;;1.60;99.90;;;;;;5000198;28;20052;-66
2022/12/04 10:52:35;;;;;;;135.45;58.13;;;1.60;99.90;;;;;;4984459;28;20037;-63
2022/12/04 10:55:37;;;;;;;136.00;60.63;;;1.60;99.90;;;;;;5012901;28;20026;-64
2022/12/04 10:58:24;;;;;;;135.35;60.60;;;1.60;99.90;;;;;;5018533;28;20033;-66
2022/12/04 11:01:14;;;;;;;135.05;60.45;;;1.60;99.90;;;;;;5017517;28;20072;-63
2022/12/04 11:04:27;;;;;;;139.73;62.50;;;1.60;99.90;;;;;;5017397;28;20050;-63
2022/12/04 11:07:21;;;;;;;141.38;60.30;;;1.70;99.90;;;;;;4998803;28;20022;-66
2022/12/04 11:10:42;;;;;;;141.48;57.65;;;1.70;99.90;;;;;;5004905;28;20022;-65
2022/12/04 11:13:28;;;;;;;142.25;58.70;;;1.70;99.90;;;;;;5003771;28;20200;-64
2022/12/04 11:16:33;;;;;;;141.55;61.28;;;1.70;99.90;;;;;;5016969;28;20065;-64
2022/12/04 11:19:24;;;;;;;147.35;60.08;;;1.60;99.90;;;;;;4980078;28;20027;-64
2022/12/04 11:22:19;;;;;;;145.60;60.00;;;1.60;99.90;;;;;;5003726;28;20033;-68
2022/12/04 11:25:06;;;;;;;143.07;60.33;;;1.60;99.90;;;;;;4996026;28;20116;-67
2022/12/04 11:27:55;;;;;;;146.75;60.22;;;1.60;99.90;;;;;;4981855;28;20026;-63
2022/12/04 11:30:53;;;;;;;136.98;60.20;;;1.70;99.90;;;;;;5000712;28;20025;-65
2022/12/04 11:33:45;;;;;;;131.18;56.75;;;1.70;99.90;;;;;;5000757;28;20018;-66
2022/12/04 11:36:35;;;;;;;147.57;63.10;;;1.70;99.90;;;;;;4986994;28;20118;-66
2022/12/04 11:39:35;;;;;;;144.75;63.10;;;1.70;99.90;;;;;;4990802;28;20108;-65
2022/12/04 11:42:28;;;;;;;137.38;58.50;;;1.70;99.90;;;;;;5007992;28;20057;-66
2022/12/04 11:45:20;;;;;;;138.35;56.35;;;1.70;99.90;;;;;;5005836;28;20026;-64
2022/12/04 11:48:21;;;;;;;146.45;62.60;;;1.70;99.90;;;;;;4998344;28;20027;-63
2022/12/04 11:51:10;;;;;;;145.27;59.65;;;1.70;99.90;;;;;;5004063;28;20041;-63
2022/12/04 11:54:27;;;;;;;142.35;60.95;;;1.70;99.90;;;;;;5010827;28;20064;-64
2022/12/04 11:57:35;;;;;;;138.30;60.65;;;1.70;99.90;;;;;;4995506;28;20036;-64
2022/12/04 12:00:22;;;;;;;148.00;63.85;;;1.80;99.90;;;;;;4995976;28;20018;-64
2022/12/04 12:03:21;;;;;;;143.40;62.10;;;1.80;99.90;;;;;;4995749;28;20029;-64
2022/12/04 12:06:43;;;;;;;146.88;63.40;;;1.80;99.90;;;;;;5009822;28;20084;-64
2022/12/04 12:09:40;;;;;;;138.95;60.08;;;1.70;99.90;;;;;;4969209;28;20038;-65
2022/12/04 12:12:45;;;;;;;140.85;58.03;;;1.80;99.90;;;;;;5008936;28;20045;-64
2022/12/04 12:15:43;;;;;;;131.27;57.33;;;1.70;99.90;;;;;;5012982;28;20041;-64
2022/12/04 12:18:29;;;;;;;142.77;60.33;;;1.70;99.90;;;;;;5011501;28;20261;-66
2022/12/04 12:21:35;;;;;;;140.90;61.10;;;1.70;99.90;;;;;;5011552;28;20022;-63
2022/12/04 12:24:25;;;;;;;136.40;60.15;;;1.70;99.90;;;;;;4996225;28;20030;-63
2022/12/04 12:27:49;;;;;;;134.63;58.45;;;1.70;99.90;;;;;;5012434;28;20041;-65
2022/12/04 12:31:14;;;;;;;137.80;54.95;;;1.80;99.90;;;;;;4997842;28;20022;-64
2022/12/04 12:34:05;;;;;;;144.98;61.72;;;1.80;99.90;;;;;;4997179;28;20029;-65
2022/12/04 12:36:53;;;;;;;137.80;59.25;;;1.80;99.90;;;;;;5011347;28;20034;-65
2022/12/04 12:40:07;;;;;;;142.35;59.00;;;1.80;99.90;;;;;;4998723;28;20471;-63
2022/12/04 12:43:17;;;;;;;140.02;58.58;;;1.80;99.90;;;;;;4991812;28;20022;-66
2022/12/04 12:46:19;;;;;;;134.90;58.92;;;1.80;99.90;;;;;;5012754;28;20037;-65
2022/12/04 12:49:17;;;;;;;145.45;59.35;;;1.80;99.90;;;;;;5007399;28;20033;-67
2022/12/04 12:52:32;;;;;;;137.75;60.95;;;1.80;99.90;;;;;;5010248;28;20560;-65
2022/12/04 12:55:35;;;;;;;146.02;60.92;;;1.80;99.90;;;;;;4996874;28;20120;-65
2022/12/04 12:58:35;;;;;;;147.35;62.17;;;1.80;99.90;;;;;;5009394;28;20037;-67
2022/12/04 13:01:30;;;;;;;150.98;61.17;;;1.80;99.90;;;;;;4992363;28;20034;-65
2022/12/04 13:04:24;;;;;;;137.98;55.80;;;1.80;99.90;;;;;;4989082;28;20511;-65
2022/12/04 13:07:16;;;;;;;134.50;57.22;;;1.80;99.90;;;;;;4988338;28;20490;-65
2022/12/04 13:10:19;;;;;;;145.63;60.45;;;1.90;99.90;;;;;;5008140;28;20034;-65
2022/12/04 13:13:12;;;;;;;146.40;59.45;;;1.80;99.90;;;;;;5012421;28;20109;-64
2022/12/04 13:16:11;;;;;;;144.23;59.05;;;1.80;99.90;;;;;;5003989;28;20105;-65
2022/12/04 13:19:20;;;;;;;141.65;60.20;;;1.80;99.90;;;;;;5022504;28;20018;-67
2022/12/04 13:22:48;;;;;;;147.50;59.08;;;1.80;99.90;;;;;;5018109;28;20026;-63
2022/12/04 13:25:45;;;;;;;146.85;57.78;;;2.00;99.90;;;;;;5021556;28;20023;-67
2022/12/04 13:28:50;;;;;;;137.10;58.97;;;1.90;99.90;;;;;;5022135;28;20022;-65
2022/12/04 13:32:03;;;;;;;134.15;56.72;;;1.90;99.90;;;;;;5014138;28;20022;-63
2022/12/04 13:35:22;;;;;;;142.68;60.22;;;1.90;99.90;;;;;;5006650;28;20029;-65
2022/12/04 13:38:22;;;;;;;145.05;58.53;;;1.90;99.90;;;;;;5008759;28;20022;-64
2022/12/04 13:41:20;;;;;;;142.43;59.95;;;1.90;99.90;;;;;;5004801;28;20030;-64
2022/12/04 13:44:22;;;;;;;147.00;60.00;;;1.90;99.90;;;;;;5006872;28;20022;-66
2022/12/04 13:47:31;;;;;;;147.13;57.83;;;1.80;99.90;;;;;;5010796;28;20109;-65
2022/12/04 13:50:17;;;;;;;156.98;61.25;;;1.80;99.90;;;;;;5001725;28;20025;-62
2022/12/04 13:53:04;;;;;;;156.80;61.90;;;1.80;99.90;;;;;;4986649;28;20034;-64
2022/12/04 13:55:56;;;;;;;158.05;61.95;;;1.80;99.90;;;;;;5008858;28;20030;-66
2022/12/04 13:58:42;;;;;;;151.55;60.67;;;1.80;99.90;;;;;;4996953;28;20395;-65
2022/12/04 14:01:44;;;;;;;144.52;60.92;;;1.80;99.90;;;;;;5008536;28;20045;-66
2022/12/04 14:04:49;;;;;;;146.00;61.00;;;1.80;99.90;;;;;;5009340;28;20065;-66
2022/12/04 14:07:37;;;;;;;145.98;58.97;;;1.80;99.90;;;;;;4995950;28;20026;-65
2022/12/04 14:10:33;;;;;;;158.48;63.58;;;1.90;99.90;;;;;;4996713;28;20553;-63
2022/12/04 14:13:25;;;;;;;146.13;62.20;;;1.90;99.90;;;;;;4996304;28;20029;-63
2022/12/04 14:16:21;;;;;;;154.07;63.67;;;1.80;99.90;;;;;;4996526;28;20050;-66
2022/12/04 14:19:07;;;;;;;;;;;1.80;99.90;;;;;;5007111;28;20066;-63
2022/12/04 14:21:53;;;;;;;139.40;56.10;;;1.80;99.90;;;;;;5007791;28;19913;-65
2022/12/04 14:24:39;;;;;;;138.07;57.80;;;1.90;99.90;;;;;;5011544;28;20447;-64
2022/12/04 14:27:41;;;;;;;151.50;59.60;;;1.80;99.90;;;;;;5009984;28;20030;-64
2022/12/04 14:30:38;;;;;;;138.18;59.53;;;1.80;99.90;;;;;;5010092;28;20033;-65
2022/12/04 14:33:27;;;;;;;146.23;59.53;;;1.80;99.90;;;;;;4994454;28;20068;-65
2022/12/04 14:36:40;;;;;;;146.50;60.80;;;1.80;99.90;;;;;;5011159;28;20042;-65
2022/12/04 14:39:30;;;;;;;152.63;60.00;;;1.90;99.90;;;;;;5010062;28;20030;-64
2022/12/04 14:42:37;;;;;;;154.52;63.92;;;1.90;99.90;;;;;;5010153;28;20018;-65
2022/12/04 14:45:56;;;;;;;154.10;62.35;;;1.90;99.90;;;;;;5009777;28;20030;-65
2022/12/04 14:49:02;;;;;;;137.65;58.38;;;1.80;99.90;;;;;;5005928;28;20109;-67